This is the latest recevied weather packets stored in our database for station/object OE3MNS-13. If no packets are shown the sender has not sent any weather packets the latest 10 day(s).
| Time | Temp. | Humidity | Pressure | Rain* | Wind** | Luminosity | Snow |
|---|---|---|---|---|---|---|---|
| 1777736721 | 23.89° C | 28% | 1019.7 hPa | 0 mm | - | 261 W/m² | - |
| 1777735523 | 24.44° C | 26% | 1020.1 hPa | 0 mm | - | 325 W/m² | - |
| 1777734921 | 24.44° C | 26% | 1020.2 hPa | 0 mm | - | 359 W/m² | - |
| 1777733719 | 25° C | 27% | 1020.3 hPa | 0 mm | - | 420 W/m² | - |
| 1777731921 | 25° C | 25% | 1020.5 hPa | 0 mm | - | 506 W/m² | - |
| 1777730743 | 25° C | 25% | 1020.9 hPa | 0 mm | - | 558 W/m² | - |
| 1777727722 | 24.44° C | 25% | 1021.4 hPa | 0 mm | - | 670 W/m² | - |
| 1777725919 | 24.44° C | 27% | 1021.7 hPa | 0 mm | - | 725 W/m² | - |
| 1777722922 | 23.89° C | 27% | 1022.4 hPa | 0 mm | - | 784 W/m² | - |
| 1777720562 | 22.78° C | 26% | 1023 hPa | 0 mm | - | 806 W/m² | - |
| 1777719919 | 23.33° C | 26% | 1023.2 hPa | 0 mm | - | 810 W/m² | - |
| 1777717220 | 22.22° C | 32% | 1023.5 hPa | 0 mm | - | 792 W/m² | - |
| 1777714298 | 21.67° C | 37% | 1024.4 hPa | 0 mm | - | 738 W/m² | - |
| 1777710620 | 19.44° C | 47% | 1024.8 hPa | 0 mm | - | 626 W/m² | - |
| 1777707059 | 15.56° C | 55% | 1025.1 hPa | 0 mm | - | 472 W/m² | - |
| 1777704617 | 13.33° C | 60% | 1025.2 hPa | 0 mm | - | 351 W/m² | - |
| 1777702817 | 11.11° C | 69% | 1025.2 hPa | 0 mm | - | 259 W/m² | - |
| 1777702221 | 10.56° C | 74% | 1025.1 hPa | 0 mm | - | 227 W/m² | - |
| 1777699827 | 7.78° C | 81% | 1025.3 hPa | 0 mm | - | 112 W/m² | - |
| 1777693820 | 5° C | 85% | 1025 hPa | 0 mm | - | 7 W/m² | - |
| 1777691422 | 5.56° C | 83% | 1024.9 hPa | 0 mm | - | 0 W/m² | - |
| 1777690823 | 5.56° C | 83% | 1024.8 hPa | 0 mm | - | 0 W/m² | - |
| 1777686644 | 6.67° C | 80% | 1025 hPa | 0 mm | - | 0 W/m² | - |
| 1777686043 | 6.67° C | 80% | 1025 hPa | 0 mm | - | 0 W/m² | - |
| 1777685419 | 6.67° C | 80% | 1025 hPa | 0 mm | - | 0 W/m² | - |
* Rain latest hour (hover to see other rain measurements)
** Current wind speed in m/s (hover to see current wind gust speed)